sensor_id;sensor_type;location;lat;lon;timestamp;pressure;altitude;pressure_sealevel;temperature;humidity
18755;BME280;35061;47.664;9.166;2023-07-09T00:02:04;102022.51;;;21.07;64.87
18755;BME280;35061;47.664;9.166;2023-07-09T00:04:32;102033.37;;;21.06;64.98
18755;BME280;35061;47.664;9.166;2023-07-09T00:07:03;102032.05;;;21.01;65.21
18755;BME280;35061;47.664;9.166;2023-07-09T00:09:32;102025.75;;;20.97;65.37
18755;BME280;35061;47.664;9.166;2023-07-09T00:12:00;102021.82;;;20.89;65.65
18755;BME280;35061;47.664;9.166;2023-07-09T00:14:28;102026.07;;;20.88;65.73
18755;BME280;35061;47.664;9.166;2023-07-09T00:16:56;102021.85;;;20.83;65.88
18755;BME280;35061;47.664;9.166;2023-07-09T00:19:24;102022.05;;;20.91;65.92
18755;BME280;35061;47.664;9.166;2023-07-09T00:21:52;102031.86;;;20.94;66.05
18755;BME280;35061;47.664;9.166;2023-07-09T00:24:21;102031.89;;;20.88;66.33
18755;BME280;35061;47.664;9.166;2023-07-09T00:26:49;102028.49;;;20.84;66.37
18755;BME280;35061;47.664;9.166;2023-07-09T00:29:18;102031.41;;;20.84;66.48
18755;BME280;35061;47.664;9.166;2023-07-09T00:31:46;102021.82;;;20.89;66.50
18755;BME280;35061;47.664;9.166;2023-07-09T00:34:15;102031.41;;;20.84;66.66
18755;BME280;35061;47.664;9.166;2023-07-09T00:36:45;102018.72;;;20.75;66.81
18755;BME280;35061;47.664;9.166;2023-07-09T00:39:19;102029.84;;;20.71;66.95
18755;BME280;35061;47.664;9.166;2023-07-09T00:41:49;102023.75;;;20.69;67.23
18755;BME280;35061;47.664;9.166;2023-07-09T00:49:32;102024.57;;;20.70;67.30
18755;BME280;35061;47.664;9.166;2023-07-09T00:52:21;102039.32;;;20.83;67.58
18755;BME280;35061;47.664;9.166;2023-07-09T00:54:51;102041.67;;;20.90;67.57
18755;BME280;35061;47.664;9.166;2023-07-09T00:57:23;102047.46;;;20.96;67.11
18755;BME280;35061;47.664;9.166;2023-07-09T00:59:59;102043.02;;;20.89;67.42
18755;BME280;35061;47.664;9.166;2023-07-09T01:02:30;102044.62;;;20.79;67.61
18755;BME280;35061;47.664;9.166;2023-07-09T01:04:59;102040.85;;;20.90;67.23
18755;BME280;35061;47.664;9.166;2023-07-09T01:07:29;102040.56;;;20.99;67.16
18755;BME280;35061;47.664;9.166;2023-07-09T01:09:57;102035.82;;;20.96;67.20
18755;BME280;35061;47.664;9.166;2023-07-09T01:12:25;102041.12;;;20.92;67.40
18755;BME280;35061;47.664;9.166;2023-07-09T01:17:27;102044.22;;;21.05;67.26
18755;BME280;35061;47.664;9.166;2023-07-09T01:19:56;102049.03;;;20.97;67.62
18755;BME280;35061;47.664;9.166;2023-07-09T01:22:25;102044.62;;;20.85;67.95
18755;BME280;35061;47.664;9.166;2023-07-09T01:25:04;102036.93;;;20.76;68.17
18755;BME280;35061;47.664;9.166;2023-07-09T01:27:41;102040.92;;;20.73;68.67
18755;BME280;35061;47.664;9.166;2023-07-09T01:30:13;102041.80;;;20.62;69.11
18755;BME280;35061;47.664;9.166;2023-07-09T01:32:44;102057.17;;;20.51;69.20
18755;BME280;35061;47.664;9.166;2023-07-09T01:35:14;102060.37;;;20.42;69.45
18755;BME280;35061;47.664;9.166;2023-07-09T01:37:43;102058.58;;;20.33;69.88
18755;BME280;35061;47.664;9.166;2023-07-09T01:40:15;102053.54;;;20.28;70.13
18755;BME280;35061;47.664;9.166;2023-07-09T01:42:57;102049.03;;;20.32;70.33
18755;BME280;35061;47.664;9.166;2023-07-09T01:45:26;102056.19;;;20.26;70.39
18755;BME280;35061;47.664;9.166;2023-07-09T01:47:54;102059.92;;;20.20;70.61
18755;BME280;35061;47.664;9.166;2023-07-09T01:50:23;102066.30;;;20.13;70.90
18755;BME280;35061;47.664;9.166;2023-07-09T01:52:52;102067.11;;;20.02;71.57
18755;BME280;35061;47.664;9.166;2023-07-09T01:55:21;102072.15;;;19.96;71.86
18755;BME280;35061;47.664;9.166;2023-07-09T01:57:49;102061.29;;;20.08;71.71
18755;BME280;35061;47.664;9.166;2023-07-09T02:00:19;102054.88;;;20.27;71.36
18755;BME280;35061;47.664;9.166;2023-07-09T02:02:48;102061.48;;;20.33;71.42
18755;BME280;35061;47.664;9.166;2023-07-09T02:05:18;102061.48;;;20.27;71.89
18755;BME280;35061;47.664;9.166;2023-07-09T02:07:47;102067.87;;;20.14;73.09
18755;BME280;35061;47.664;9.166;2023-07-09T02:10:16;102071.59;;;20.09;73.45
18755;BME280;35061;47.664;9.166;2023-07-09T02:12:45;102080.32;;;20.09;73.93
18755;BME280;35061;47.664;9.166;2023-07-09T02:15:14;102067.05;;;20.31;73.22
18755;BME280;35061;47.664;9.166;2023-07-09T02:17:43;102062.80;;;20.38;73.24
18755;BME280;35061;47.664;9.166;2023-07-09T02:20:13;102060.90;;;20.46;73.13
18755;BME280;35061;47.664;9.166;2023-07-09T02:22:42;102056.91;;;20.49;73.12
18755;BME280;35061;47.664;9.166;2023-07-09T02:25:10;102063.02;;;20.45;73.25
18755;BME280;35061;47.664;9.166;2023-07-09T02:27:39;102061.98;;;20.37;73.47
18755;BME280;35061;47.664;9.166;2023-07-09T02:30:07;102068.35;;;20.30;73.51
18755;BME280;35061;47.664;9.166;2023-07-09T02:32:35;102062.24;;;20.33;73.27
18755;BME280;35061;47.664;9.166;2023-07-09T02:35:04;102063.29;;;20.42;73.24
18755;BME280;35061;47.664;9.166;2023-07-09T02:37:32;102059.30;;;20.50;72.84
18755;BME280;35061;47.664;9.166;2023-07-09T02:40:01;102067.02;;;20.42;72.89
18755;BME280;35061;47.664;9.166;2023-07-09T02:42:29;102059.88;;;20.32;73.00
18755;BME280;35061;47.664;9.166;2023-07-09T02:44:57;102059.95;;;20.15;73.30
18755;BME280;35061;47.664;9.166;2023-07-09T02:47:25;102071.59;;;20.03;73.72
18755;BME280;35061;47.664;9.166;2023-07-09T02:49:53;102076.10;;;19.93;74.00
18755;BME280;35061;47.664;9.166;2023-07-09T02:52:21;102071.59;;;19.86;74.23
18755;BME280;35061;47.664;9.166;2023-07-09T02:54:49;102076.37;;;19.78;74.55
18755;BME280;35061;47.664;9.166;2023-07-09T02:57:17;102078.20;;;19.70;75.02
18755;BME280;35061;47.664;9.166;2023-07-09T02:59:45;102084.28;;;19.66;75.29
18755;BME280;35061;47.664;9.166;2023-07-09T03:02:13;102087.19;;;19.60;75.45
18755;BME280;35061;47.664;9.166;2023-07-09T03:04:41;102088.23;;;19.57;75.69
18755;BME280;35061;47.664;9.166;2023-07-09T03:07:09;102098.80;;;19.55;75.87
18755;BME280;35061;47.664;9.166;2023-07-09T03:09:37;102086.93;;;19.52;76.04
18755;BME280;35061;47.664;9.166;2023-07-09T03:12:06;102092.48;;;19.50;76.24
18755;BME280;35061;47.664;9.166;2023-07-09T03:14:35;102090.88;;;19.49;76.36
18755;BME280;35061;47.664;9.166;2023-07-09T03:17:04;102086.11;;;19.46;76.68
18755;BME280;35061;47.664;9.166;2023-07-09T03:19:32;102090.88;;;19.44;77.15
18755;BME280;35061;47.664;9.166;2023-07-09T03:22:03;102095.13;;;19.65;77.00
18755;BME280;35061;47.664;9.166;2023-07-09T03:24:31;102098.27;;;19.85;76.37
18755;BME280;35061;47.664;9.166;2023-07-09T03:26:59;102100.92;;;19.88;76.55
18755;BME280;35061;47.664;9.166;2023-07-09T03:29:27;102093.80;;;19.78;77.00
18755;BME280;35061;47.664;9.166;2023-07-09T03:31:55;102103.05;;;19.65;77.51
18755;BME280;35061;47.664;9.166;2023-07-09T03:34:23;102102.23;;;19.53;77.77
18755;BME280;35061;47.664;9.166;2023-07-09T03:36:51;102104.62;;;19.49;77.87
18755;BME280;35061;47.664;9.166;2023-07-09T03:39:19;102118.62;;;19.45;78.01
18755;BME280;35061;47.664;9.166;2023-07-09T03:41:47;102114.10;;;19.38;78.31
18755;BME280;35061;47.664;9.166;2023-07-09T03:44:15;102107.23;;;19.30;78.65
18755;BME280;35061;47.664;9.166;2023-07-09T03:46:42;102115.93;;;19.24;78.82
18755;BME280;35061;47.664;9.166;2023-07-09T03:49:10;102109.82;;;19.16;78.99
18755;BME280;35061;47.664;9.166;2023-07-09T03:51:39;102113.77;;;19.13;79.32
18755;BME280;35061;47.664;9.166;2023-07-09T03:54:07;102108.48;;;19.11;79.43
18755;BME280;35061;47.664;9.166;2023-07-09T03:56:35;102103.24;;;19.10;79.74
18755;BME280;35061;47.664;9.166;2023-07-09T03:59:04;102116.42;;;19.11;79.83
18755;BME280;35061;47.664;9.166;2023-07-09T04:01:32;102113.52;;;19.11;80.05
18755;BME280;35061;47.664;9.166;2023-07-09T04:04:00;102114.30;;;19.11;80.12
18755;BME280;35061;47.664;9.166;2023-07-09T04:06:29;102115.34;;;19.08;80.32
18755;BME280;35061;47.664;9.166;2023-07-09T04:08:57;102114.30;;;19.06;80.49
18755;BME280;35061;47.664;9.166;2023-07-09T04:11:25;102124.30;;;19.05;80.53
18755;BME280;35061;47.664;9.166;2023-07-09T04:13:53;102119.04;;;19.03;80.70
18755;BME280;35061;47.664;9.166;2023-07-09T04:16:21;102126.43;;;19.04;80.75
18755;BME280;35061;47.664;9.166;2023-07-09T04:18:49;102124.89;;;19.15;80.65
18755;BME280;35061;47.664;9.166;2023-07-09T04:21:17;102125.65;;;19.15;80.81
18755;BME280;35061;47.664;9.166;2023-07-09T04:23:45;102122.51;;;19.13;80.98
18755;BME280;35061;47.664;9.166;2023-07-09T04:26:15;102123.29;;;19.14;81.04
18755;BME280;35061;47.664;9.166;2023-07-09T04:28:43;102124.08;;;19.14;81.11
18755;BME280;35061;47.664;9.166;2023-07-09T04:31:11;102124.08;;;19.14;81.05
18755;BME280;35061;47.664;9.166;2023-07-09T04:33:39;102126.46;;;19.16;81.11
18755;BME280;35061;47.664;9.166;2023-07-09T04:36:07;102123.29;;;19.14;81.33
18755;BME280;35061;47.664;9.166;2023-07-09T04:38:36;102126.73;;;19.12;81.42
18755;BME280;35061;47.664;9.166;2023-07-09T04:41:04;102133.04;;;19.10;81.80
18755;BME280;35061;47.664;9.166;2023-07-09T04:43:32;102129.87;;;19.08;82.17
18755;BME280;35061;47.664;9.166;2023-07-09T04:46:00;102132.52;;;19.06;82.25
18755;BME280;35061;47.664;9.166;2023-07-09T04:48:29;102126.20;;;19.08;82.46
18755;BME280;35061;47.664;9.166;2023-07-09T04:50:57;102128.30;;;19.13;82.39
18755;BME280;35061;47.664;9.166;2023-07-09T04:53:27;102134.12;;;19.13;82.43
18755;BME280;35061;47.664;9.166;2023-07-09T04:55:55;102134.90;;;19.14;82.80
18755;BME280;35061;47.664;9.166;2023-07-09T04:58:23;102137.29;;;19.15;83.09
18755;BME280;35061;47.664;9.166;2023-07-09T05:00:51;102130.45;;;19.18;83.36
18755;BME280;35061;47.664;9.166;2023-07-09T05:03:19;102123.59;;;19.21;83.70
18755;BME280;35061;47.664;9.166;2023-07-09T05:05:47;102119.89;;;19.32;83.31
18755;BME280;35061;47.664;9.166;2023-07-09T05:08:16;102136.80;;;19.34;83.65
18755;BME280;35061;47.664;9.166;2023-07-09T05:10:48;102142.35;;;19.37;83.70
18755;BME280;35061;47.664;9.166;2023-07-09T05:13:17;102127.05;;;19.43;83.41
18755;BME280;35061;47.664;9.166;2023-07-09T05:15:46;102136.05;;;19.45;83.54
18755;BME280;35061;47.664;9.166;2023-07-09T05:18:15;102133.66;;;19.49;83.58
18755;BME280;35061;47.664;9.166;2023-07-09T05:20:43;102133.66;;;19.55;83.42
18755;BME280;35061;47.664;9.166;2023-07-09T05:23:11;102134.73;;;19.57;83.45
18755;BME280;35061;47.664;9.166;2023-07-09T05:25:39;102138.95;;;19.62;83.34
18755;BME280;35061;47.664;9.166;2023-07-09T05:28:08;102131.27;;;19.64;83.64
18755;BME280;35061;47.664;9.166;2023-07-09T05:30:36;102135.52;;;19.69;83.51
18755;BME280;35061;47.664;9.166;2023-07-09T05:33:04;102128.91;;;19.74;83.44
18755;BME280;35061;47.664;9.166;2023-07-09T05:35:32;102129.70;;;19.75;84.00
18755;BME280;35061;47.664;9.166;2023-07-09T05:38:00;102137.38;;;19.84;83.81
18755;BME280;35061;47.664;9.166;2023-07-09T05:40:28;102128.95;;;19.97;83.62
18755;BME280;35061;47.664;9.166;2023-07-09T05:42:56;102129.21;;;20.05;83.86
18755;BME280;35061;47.664;9.166;2023-07-09T05:45:24;102128.95;;;20.08;84.19
18755;BME280;35061;47.664;9.166;2023-07-09T05:47:51;102124.44;;;20.13;84.11
18755;BME280;35061;47.664;9.166;2023-07-09T05:50:20;102122.31;;;20.19;84.00
18755;BME280;35061;47.664;9.166;2023-07-09T05:52:47;102121.27;;;20.22;84.24
18755;BME280;35061;47.664;9.166;2023-07-09T05:55:15;102129.14;;;20.28;84.07
18755;BME280;35061;47.664;9.166;2023-07-09T05:57:43;102131.79;;;20.37;83.79
18755;BME280;35061;47.664;9.166;2023-07-09T06:00:12;102123.03;;;20.48;83.47
18755;BME280;35061;47.664;9.166;2023-07-09T06:02:40;102125.65;;;20.58;83.20
18755;BME280;35061;47.664;9.166;2023-07-09T06:05:08;102120.05;;;20.71;83.10
18755;BME280;35061;47.664;9.166;2023-07-09T06:07:37;102123.39;;;20.98;82.20
18755;BME280;35061;47.664;9.166;2023-07-09T06:10:07;102117.70;;;21.23;81.27
18755;BME280;35061;47.664;9.166;2023-07-09T06:12:35;102120.51;;;21.34;80.49
18755;BME280;35061;47.664;9.166;2023-07-09T06:15:04;102115.48;;;21.41;80.23
18755;BME280;35061;47.664;9.166;2023-07-09T06:17:32;102119.40;;;21.49;79.50
18755;BME280;35061;47.664;9.166;2023-07-09T06:20:00;102123.03;;;21.55;79.29
18755;BME280;35061;47.664;9.166;2023-07-09T06:22:28;102120.12;;;21.55;79.11
18755;BME280;35061;47.664;9.166;2023-07-09T06:24:56;102115.57;;;21.60;78.81
18755;BME280;35061;47.664;9.166;2023-07-09T06:27:24;102113.64;;;21.74;78.12
18755;BME280;35061;47.664;9.166;2023-07-09T06:29:52;102111.48;;;21.80;77.92
18755;BME280;35061;47.664;9.166;2023-07-09T06:32:20;102104.26;;;21.87;77.18
18755;BME280;35061;47.664;9.166;2023-07-09T06:34:48;102104.45;;;21.95;76.49
18755;BME280;35061;47.664;9.166;2023-07-09T06:37:16;102105.14;;;22.07;75.77
18755;BME280;35061;47.664;9.166;2023-07-09T06:39:44;102111.16;;;22.14;74.84
18755;BME280;35061;47.664;9.166;2023-07-09T06:42:12;102113.22;;;22.20;73.56
18755;BME280;35061;47.664;9.166;2023-07-09T06:44:40;102108.64;;;22.24;72.50
18755;BME280;35061;47.664;9.166;2023-07-09T06:47:08;102107.82;;;22.29;71.69
18755;BME280;35061;47.664;9.166;2023-07-09T06:49:36;102106.41;;;22.36;69.74
18755;BME280;35061;47.664;9.166;2023-07-09T06:52:04;102112.17;;;22.42;68.67
18755;BME280;35061;47.664;9.166;2023-07-09T06:54:33;102108.70;;;22.49;68.47
18755;BME280;35061;47.664;9.166;2023-07-09T06:57:01;102111.32;;;22.53;68.33
18755;BME280;35061;47.664;9.166;2023-07-09T06:59:29;102108.64;;;22.55;67.80
18755;BME280;35061;47.664;9.166;2023-07-09T07:01:57;102110.44;;;22.58;67.50
18755;BME280;35061;47.664;9.166;2023-07-09T07:04:26;102122.34;;;22.60;67.04
18755;BME280;35061;47.664;9.166;2023-07-09T07:06:55;102116.20;;;22.64;67.00
18755;BME280;35061;47.664;9.166;2023-07-09T07:09:24;102110.05;;;22.67;66.71
18755;BME280;35061;47.664;9.166;2023-07-09T07:11:52;102115.61;;;22.71;66.50
18755;BME280;35061;47.664;9.166;2023-07-09T07:14:20;102110.54;;;22.71;66.35
18755;BME280;35061;47.664;9.166;2023-07-09T07:16:49;102124.05;;;22.75;66.19
18755;BME280;35061;47.664;9.166;2023-07-09T07:19:17;102113.16;;;22.75;65.92
18755;BME280;35061;47.664;9.166;2023-07-09T07:21:45;102106.77;;;22.77;65.82
18755;BME280;35061;47.664;9.166;2023-07-09T07:24:13;102106.22;;;22.78;65.90
18755;BME280;35061;47.664;9.166;2023-07-09T07:26:41;102102.20;;;22.81;65.79
18755;BME280;35061;47.664;9.166;2023-07-09T07:29:09;102098.41;;;22.86;65.72
18755;BME280;35061;47.664;9.166;2023-07-09T07:31:37;102099.65;;;22.91;65.64
18755;BME280;35061;47.664;9.166;2023-07-09T07:34:05;102096.18;;;22.93;65.51
18755;BME280;35061;47.664;9.166;2023-07-09T07:36:33;102104.88;;;22.98;65.42
18755;BME280;35061;47.664;9.166;2023-07-09T07:39:07;102102.20;;;23.00;65.28
18755;BME280;35061;47.664;9.166;2023-07-09T07:41:35;102103.77;;;23.02;65.06
18755;BME280;35061;47.664;9.166;2023-07-09T07:44:04;102097.91;;;23.02;64.92
18755;BME280;35061;47.664;9.166;2023-07-09T07:46:34;102090.20;;;23.04;65.06
18755;BME280;35061;47.664;9.166;2023-07-09T07:49:02;102092.81;;;23.08;65.09
18755;BME280;35061;47.664;9.166;2023-07-09T07:51:30;102086.30;;;23.15;65.01
18755;BME280;35061;47.664;9.166;2023-07-09T07:53:58;102084.18;;;23.16;64.92
18755;BME280;35061;47.664;9.166;2023-07-09T07:56:26;102082.74;;;23.22;64.83
18755;BME280;35061;47.664;9.166;2023-07-09T07:58:54;102085.91;;;23.24;64.69
18755;BME280;35061;47.664;9.166;2023-07-09T08:01:22;102081.63;;;23.25;64.67
18755;BME280;35061;47.664;9.166;2023-07-09T08:03:50;102091.70;;;23.30;64.65
18755;BME280;35061;47.664;9.166;2023-07-09T08:06:18;102088.76;;;23.30;64.58
18755;BME280;35061;47.664;9.166;2023-07-09T08:08:46;102089.48;;;23.36;64.79
18755;BME280;35061;47.664;9.166;2023-07-09T08:11:14;102090.33;;;23.50;64.66
18755;BME280;35061;47.664;9.166;2023-07-09T08:13:42;102092.36;;;23.55;64.59
18755;BME280;35061;47.664;9.166;2023-07-09T08:16:11;102090.55;;;23.52;64.37
18755;BME280;35061;47.664;9.166;2023-07-09T08:18:42;102088.99;;;23.51;64.46
18755;BME280;35061;47.664;9.166;2023-07-09T08:21:10;102091.90;;;23.51;64.60
18755;BME280;35061;47.664;9.166;2023-07-09T08:23:39;102087.65;;;23.52;64.61
18755;BME280;35061;47.664;9.166;2023-07-09T08:26:07;102091.57;;;23.55;64.66
18755;BME280;35061;47.664;9.166;2023-07-09T08:28:35;102095.17;;;23.61;64.83
18755;BME280;35061;47.664;9.166;2023-07-09T08:31:03;102093.30;;;23.77;64.52
18755;BME280;35061;47.664;9.166;2023-07-09T08:33:32;102090.20;;;23.89;64.16
18755;BME280;35061;47.664;9.166;2023-07-09T08:36:01;102084.12;;;24.00;64.18
18755;BME280;35061;47.664;9.166;2023-07-09T08:38:29;102080.36;;;24.19;64.04
18755;BME280;35061;47.664;9.166;2023-07-09T08:46:32;102074.47;;;24.73;61.48
18755;BME280;35061;47.664;9.166;2023-07-09T08:49:12;102076.82;;;24.88;60.36
18755;BME280;35061;47.664;9.166;2023-07-09T08:51:43;102070.38;;;25.03;59.75
18755;BME280;35061;47.664;9.166;2023-07-09T08:54:18;102070.55;;;25.18;59.72
18755;BME280;35061;47.664;9.166;2023-07-09T08:56:54;102068.32;;;25.32;59.01
18755;BME280;35061;47.664;9.166;2023-07-09T08:59:26;102057.92;;;25.45;59.04
18755;BME280;35061;47.664;9.166;2023-07-09T09:01:57;102070.97;;;25.57;59.08
18755;BME280;35061;47.664;9.166;2023-07-09T09:04:29;102073.45;;;25.74;58.56
18755;BME280;35061;47.664;9.166;2023-07-09T09:09:41;102060.77;;;26.01;58.44
18755;BME280;35061;47.664;9.166;2023-07-09T09:12:17;102072.97;;;26.13;58.67
18755;BME280;35061;47.664;9.166;2023-07-09T09:14:58;102071.33;;;26.25;58.57
18755;BME280;35061;47.664;9.166;2023-07-09T09:17:27;102060.02;;;26.37;58.17
18755;BME280;35061;47.664;9.166;2023-07-09T09:20:03;102057.17;;;26.45;58.14
18755;BME280;35061;47.664;9.166;2023-07-09T09:22:49;102056.81;;;26.56;57.52
18755;BME280;35061;47.664;9.166;2023-07-09T09:25:27;102065.28;;;26.68;57.10
18755;BME280;35061;47.664;9.166;2023-07-09T09:27:56;102062.01;;;26.79;56.51
18755;BME280;35061;47.664;9.166;2023-07-09T09:30:24;102055.02;;;26.90;56.61
18755;BME280;35061;47.664;9.166;2023-07-09T09:32:59;102053.87;;;27.01;56.25
18755;BME280;35061;47.664;9.166;2023-07-09T09:35:31;102069.14;;;27.07;55.36
18755;BME280;35061;47.664;9.166;2023-07-09T09:38:02;102058.80;;;27.14;54.96
18755;BME280;35061;47.664;9.166;2023-07-09T09:40:34;102055.27;;;27.15;54.79
18755;BME280;35061;47.664;9.166;2023-07-09T09:43:13;102061.75;;;27.22;54.57
18755;BME280;35061;47.664;9.166;2023-07-09T09:45:43;102057.83;;;27.27;54.21
18755;BME280;35061;47.664;9.166;2023-07-09T09:48:27;102058.45;;;27.33;54.13
18755;BME280;35061;47.664;9.166;2023-07-09T09:50:56;102058.45;;;27.41;54.21
18755;BME280;35061;47.664;9.166;2023-07-09T09:53:38;102057.30;;;27.52;54.24
18755;BME280;35061;47.664;9.166;2023-07-09T09:56:13;102054.39;;;27.60;53.77
18755;BME280;35061;47.664;9.166;2023-07-09T09:58:42;102053.57;;;27.67;53.41
18755;BME280;35061;47.664;9.166;2023-07-09T10:01:15;102060.64;;;27.71;53.37
18755;BME280;35061;47.664;9.166;2023-07-09T10:03:47;102056.91;;;27.79;52.91
18755;BME280;35061;47.664;9.166;2023-07-09T10:06:58;102052.59;;;27.87;52.40
18755;BME280;35061;47.664;9.166;2023-07-09T10:09:47;102048.12;;;27.94;51.89
18755;BME280;35061;47.664;9.166;2023-07-09T10:12:30;102058.88;;;27.99;51.96
18755;BME280;35061;47.664;9.166;2023-07-09T10:20:44;102048.48;;;28.22;50.98
18755;BME280;35061;47.664;9.166;2023-07-09T10:23:20;102049.65;;;28.26;51.21
18755;BME280;35061;47.664;9.166;2023-07-09T10:32:17;102050.70;;;28.54;49.71
18755;BME280;35061;47.664;9.166;2023-07-09T10:34:55;102045.56;;;28.63;50.23
18755;BME280;35061;47.664;9.166;2023-07-09T10:40:25;102033.70;;;28.78;49.70
18755;BME280;35061;47.664;9.166;2023-07-09T10:42:59;102039.77;;;28.88;49.47
18755;BME280;35061;47.664;9.166;2023-07-09T10:45:37;102042.69;;;28.96;48.41
18755;BME280;35061;47.664;9.166;2023-07-09T10:48:26;102041.09;;;29.03;47.64
18755;BME280;35061;47.664;9.166;2023-07-09T10:50:57;102031.41;;;29.10;46.17
18755;BME280;35061;47.664;9.166;2023-07-09T10:53:40;102028.40;;;29.18;45.71
18755;BME280;35061;47.664;9.166;2023-07-09T10:56:14;102027.58;;;29.25;42.79
18755;BME280;35061;47.664;9.166;2023-07-09T10:58:54;102025.16;;;29.31;42.85
18755;BME280;35061;47.664;9.166;2023-07-09T11:01:31;102021.20;;;29.36;42.29
18755;BME280;35061;47.664;9.166;2023-07-09T11:04:04;102016.10;;;29.37;42.48
18755;BME280;35061;47.664;9.166;2023-07-09T11:06:37;102009.40;;;29.36;42.82
18755;BME280;35061;47.664;9.166;2023-07-09T11:09:32;102004.49;;;29.31;42.97
18755;BME280;35061;47.664;9.166;2023-07-09T11:15:27;102009.69;;;29.23;42.24
18755;BME280;35061;47.664;9.166;2023-07-09T11:17:58;101995.14;;;29.25;42.28
18755;BME280;35061;47.664;9.166;2023-07-09T11:20:35;101988.41;;;29.32;42.21
18755;BME280;35061;47.664;9.166;2023-07-09T11:23:19;101987.72;;;29.42;41.21
18755;BME280;35061;47.664;9.166;2023-07-09T11:28:38;101983.27;;;29.58;40.53
18755;BME280;35061;47.664;9.166;2023-07-09T11:31:14;101993.02;;;29.69;40.42
18755;BME280;35061;47.664;9.166;2023-07-09T11:33:49;101982.52;;;29.75;40.15
18755;BME280;35061;47.664;9.166;2023-07-09T11:36:26;101982.45;;;29.83;39.69
18755;BME280;35061;47.664;9.166;2023-07-09T11:38:54;101983.73;;;29.90;39.84
18755;BME280;35061;47.664;9.166;2023-07-09T11:41:43;101977.35;;;30.01;39.65
18755;BME280;35061;47.664;9.166;2023-07-09T11:44:21;101981.80;;;30.10;39.05
18755;BME280;35061;47.664;9.166;2023-07-09T11:49:24;101969.27;;;30.19;38.95
18755;BME280;35061;47.664;9.166;2023-07-09T11:51:55;101973.95;;;30.22;38.25
18755;BME280;35061;47.664;9.166;2023-07-09T11:54:26;101977.45;;;30.29;38.65
18755;BME280;35061;47.664;9.166;2023-07-09T11:56:59;101969.50;;;30.31;38.97
18755;BME280;35061;47.664;9.166;2023-07-09T11:59:29;101966.49;;;30.39;38.27
18755;BME280;35061;47.664;9.166;2023-07-09T12:01:57;101966.52;;;30.49;37.91
18755;BME280;35061;47.664;9.166;2023-07-09T12:04:33;101968.78;;;30.58;37.30
18755;BME280;35061;47.664;9.166;2023-07-09T12:07:03;101963.75;;;30.69;35.68
18755;BME280;35061;47.664;9.166;2023-07-09T12:09:39;101956.32;;;30.77;35.70
18755;BME280;35061;47.664;9.166;2023-07-09T12:12:17;101962.90;;;30.86;35.38
18755;BME280;35061;47.664;9.166;2023-07-09T12:14:45;101957.83;;;30.96;35.37
18755;BME280;35061;47.664;9.166;2023-07-09T12:17:14;101950.99;;;31.03;35.43
18755;BME280;35061;47.664;9.166;2023-07-09T12:19:42;101949.49;;;31.12;35.04
18755;BME280;35061;47.664;9.166;2023-07-09T12:22:17;101949.36;;;31.20;34.85
18755;BME280;35061;47.664;9.166;2023-07-09T12:24:48;101947.37;;;31.23;35.81
18755;BME280;35061;47.664;9.166;2023-07-09T12:27:20;101952.83;;;31.26;35.39
18755;BME280;35061;47.664;9.166;2023-07-09T12:29:53;101945.66;;;31.29;34.83
18755;BME280;35061;47.664;9.166;2023-07-09T12:32:21;101944.62;;;31.35;34.77
18755;BME280;35061;47.664;9.166;2023-07-09T12:34:52;101937.75;;;31.42;34.18
18755;BME280;35061;47.664;9.166;2023-07-09T12:37:21;101938.11;;;31.46;33.34
18755;BME280;35061;47.664;9.166;2023-07-09T12:39:52;101936.25;;;31.51;32.04
18755;BME280;35061;47.664;9.166;2023-07-09T12:42:27;101922.35;;;31.53;31.39
18755;BME280;35061;47.664;9.166;2023-07-09T12:44:57;101927.81;;;31.57;30.95
18755;BME280;35061;47.664;9.166;2023-07-09T12:47:25;101923.92;;;31.54;30.99
18755;BME280;35061;47.664;9.166;2023-07-09T12:50:01;101921.30;;;31.58;31.33
18755;BME280;35061;47.664;9.166;2023-07-09T12:52:30;101927.22;;;31.58;30.93
18755;BME280;35061;47.664;9.166;2023-07-09T12:54:59;101918.66;;;31.63;31.22
18755;BME280;35061;47.664;9.166;2023-07-09T12:57:29;101913.81;;;31.67;30.67
18755;BME280;35061;47.664;9.166;2023-07-09T12:59:58;101917.25;;;31.73;30.58
18755;BME280;35061;47.664;9.166;2023-07-09T13:02:27;101913.20;;;31.69;30.77
18755;BME280;35061;47.664;9.166;2023-07-09T13:05:20;101906.16;;;31.54;31.25
18755;BME280;35061;47.664;9.166;2023-07-09T13:07:59;101908.22;;;31.52;29.50
18755;BME280;35061;47.664;9.166;2023-07-09T13:10:37;101917.25;;;31.54;30.58
18755;BME280;35061;47.664;9.166;2023-07-09T13:13:09;101913.81;;;31.57;29.12
18755;BME280;35061;47.664;9.166;2023-07-09T13:15:47;101918.66;;;31.63;29.63
18755;BME280;35061;47.664;9.166;2023-07-09T13:18:16;101910.55;;;31.63;28.83
18755;BME280;35061;47.664;9.166;2023-07-09T13:20:45;101903.55;;;31.68;28.27
18755;BME280;35061;47.664;9.166;2023-07-09T13:23:27;101900.27;;;31.74;28.07
18755;BME280;35061;47.664;9.166;2023-07-09T13:25:56;101902.76;;;31.78;27.84
18755;BME280;35061;47.664;9.166;2023-07-09T13:28:28;101897.04;;;31.80;28.13
18755;BME280;35061;47.664;9.166;2023-07-09T13:30:59;101891.45;;;31.84;28.23
18755;BME280;35061;47.664;9.166;2023-07-09T13:33:28;101887.36;;;31.89;27.85
18755;BME280;35061;47.664;9.166;2023-07-09T13:35:56;101890.01;;;31.95;27.53
18755;BME280;35061;47.664;9.166;2023-07-09T13:38:24;101892.04;;;32.02;27.24
18755;BME280;35061;47.664;9.166;2023-07-09T13:40:59;101891.12;;;32.09;26.82
18755;BME280;35061;47.664;9.166;2023-07-09T13:43:34;101882.65;;;32.15;26.18
18755;BME280;35061;47.664;9.166;2023-07-09T13:46:05;101882.32;;;32.21;26.01
18755;BME280;35061;47.664;9.166;2023-07-09T13:48:34;101890.14;;;32.26;26.58